createdAt,value
2022-09-01T00:00:19.067Z,96715.75
2022-09-01T00:02:47.173Z,96711.34
2022-09-01T00:05:15.277Z,96710.94
2022-09-01T00:07:43.387Z,96700.66
2022-09-01T00:10:11.525Z,96686.31
2022-09-01T00:12:40.363Z,96669.19
2022-09-01T00:15:12.417Z,96675.41
2022-09-01T00:17:42.802Z,96682.28
2022-09-01T00:20:11.833Z,96682.41
2022-09-01T00:22:39.896Z,96683.34
2022-09-01T00:25:11.023Z,96687.75
2022-09-01T00:27:39.028Z,96677.22
2022-09-01T00:30:10.437Z,96680.34
2022-09-01T00:32:38.595Z,96678.84
2022-09-01T00:35:07.296Z,96675.63
2022-09-01T00:37:35.368Z,96678.50
2022-09-01T00:40:06.829Z,96673.50
2022-09-01T00:42:34.869Z,96669.66
2022-09-01T00:45:03.723Z,96670.16
2022-09-01T00:47:31.767Z,96673.38
2022-09-01T00:50:00.446Z,96676.06
2022-09-01T00:52:38.699Z,96682.56
2022-09-01T00:55:16.256Z,96676.81
2022-09-01T00:57:46.932Z,96700.34
2022-09-01T01:00:25.331Z,96699.75
2022-09-01T01:02:57.074Z,96704.63
2022-09-01T01:05:28.141Z,96709.19
2022-09-01T01:07:57.170Z,96721.25
2022-09-01T01:10:25.721Z,96719.38
2022-09-01T01:12:53.829Z,96720.94
2022-09-01T01:15:21.874Z,96698.06
2022-09-01T01:17:49.942Z,96693.84
2022-09-01T01:20:18.568Z,96688.81
2022-09-01T01:23:42.149Z,96678.13
2022-09-01T01:26:11.553Z,96701.56
2022-09-01T01:28:42.244Z,96710.69
2022-09-01T01:31:18.615Z,96717.97
2022-09-01T01:33:52.024Z,96719.69
2022-09-01T01:36:24.180Z,96710.22
2022-09-01T01:38:55.268Z,96689.22
2022-09-01T01:41:23.331Z,96693.47
2022-09-01T01:43:51.379Z,96708.25
2022-09-01T01:46:21.910Z,96713.75
2022-09-01T01:48:51.442Z,96710.31
2022-09-01T01:51:23.629Z,96698.84
2022-09-01T01:53:51.921Z,96707.09
2022-09-01T01:56:24.307Z,96699.53
2022-09-01T01:58:56.109Z,96700.19
2022-09-01T02:01:29.035Z,96685.78
2022-09-01T02:04:00.954Z,96676.50
2022-09-01T02:06:29.698Z,96661.41
2022-09-01T02:08:58.646Z,96643.03
2022-09-01T02:11:27.665Z,96646.75
2022-09-01T02:13:56.825Z,96651.69
2022-09-01T02:16:27.066Z,96660.06
2022-09-01T02:18:57.785Z,96656.69
2022-09-01T02:21:29.062Z,96646.47
2022-09-01T02:24:04.432Z,96619.00
2022-09-01T02:26:41.034Z,96591.44
2022-09-01T02:29:13.187Z,96595.13
2022-09-01T02:31:41.216Z,96575.34
2022-09-01T02:34:10.618Z,96552.34
2022-09-01T02:36:39.451Z,96579.16
2022-09-01T02:39:08.112Z,96574.72
2022-09-01T02:41:36.262Z,96552.66
2022-09-01T02:44:07.183Z,96525.75
2022-09-01T02:46:35.207Z,96528.28
2022-09-01T02:49:05.832Z,96527.47
2022-09-01T02:51:33.858Z,96536.94
2022-09-01T02:54:01.902Z,96547.50
2022-09-01T02:56:30.000Z,96577.03
2022-09-01T02:59:00.349Z,96586.44
2022-09-01T03:01:32.082Z,96574.50
2022-09-01T03:04:05.489Z,96591.03
2022-09-01T03:06:34.151Z,96600.06
2022-09-01T03:09:03.503Z,96598.44
2022-09-01T03:11:37.154Z,96600.25
2022-09-01T03:14:08.286Z,96614.03
2022-09-01T03:16:38.142Z,96615.75
2022-09-01T03:19:10.287Z,96615.28
2022-09-01T03:21:40.461Z,96637.31
2022-09-01T03:24:12.587Z,96643.13
2022-09-01T03:26:41.089Z,96647.28
2022-09-01T03:29:11.805Z,96666.63
2022-09-01T03:31:39.935Z,96685.91
2022-09-01T03:34:08.079Z,96693.78
2022-09-01T03:36:36.171Z,96693.75
2022-09-01T03:39:04.538Z,96700.19
2022-09-01T03:41:37.791Z,96705.50
2022-09-01T03:44:05.808Z,96703.53
2022-09-01T03:46:36.916Z,96703.47
2022-09-01T03:49:05.815Z,96704.13
2022-09-01T03:51:34.212Z,96700.75
2022-09-01T03:54:05.437Z,96702.78
2022-09-01T03:56:33.586Z,96709.53
2022-09-01T03:59:07.562Z,96701.13
2022-09-01T04:01:36.188Z,96695.84
2022-09-01T04:04:04.556Z,96688.81
2022-09-01T04:06:32.649Z,96690.38
2022-09-01T04:09:03.628Z,96690.22
2022-09-01T04:11:31.690Z,96676.84
2022-09-01T04:14:00.577Z,96672.13
2022-09-01T04:16:33.894Z,96679.06
2022-09-01T04:19:02.020Z,96671.09
2022-09-01T04:21:30.050Z,96675.47
2022-09-01T04:23:58.738Z,96665.16
2022-09-01T04:26:29.214Z,96671.41
2022-09-01T04:29:00.164Z,96673.38
2022-09-01T04:31:30.587Z,96678.50
2022-09-01T04:33:58.731Z,96669.94
2022-09-01T04:36:31.146Z,96663.22
2022-09-01T04:39:01.136Z,96654.41
2022-09-01T04:41:33.433Z,96652.63
2022-09-01T04:44:06.708Z,96650.59
2022-09-01T04:46:37.493Z,96643.56
2022-09-01T04:49:06.995Z,96642.59
2022-09-01T04:51:42.574Z,96640.06
2022-09-01T04:54:14.537Z,96643.66
2022-09-01T04:56:44.253Z,96637.16
2022-09-01T04:59:13.825Z,96633.97
2022-09-01T05:01:42.985Z,96644.41
2022-09-01T05:04:16.495Z,96635.09
2022-09-01T05:06:47.000Z,96642.34
2022-09-01T05:09:15.166Z,96647.59
2022-09-01T05:11:45.605Z,96648.75
2022-09-01T05:14:14.107Z,96644.69
2022-09-01T05:16:42.223Z,96648.56
2022-09-01T05:19:10.966Z,96646.63
2022-09-01T05:21:39.531Z,96647.56
2022-09-01T05:24:07.694Z,96638.88
2022-09-01T05:26:35.798Z,96641.25
2022-09-01T05:29:05.974Z,96639.91
2022-09-01T05:31:35.378Z,96631.88
2022-09-01T05:34:05.427Z,96638.19
2022-09-01T05:36:33.610Z,96641.31
2022-09-01T05:39:06.114Z,96638.22
2022-09-01T05:41:37.144Z,96631.81
2022-09-01T05:44:09.173Z,96628.09
2022-09-01T05:46:40.625Z,96634.84
2022-09-01T05:49:12.199Z,96630.31
2022-09-01T05:51:45.464Z,96636.56
2022-09-01T05:54:15.167Z,96630.63
2022-09-01T05:56:45.169Z,96623.44
2022-09-01T05:59:23.106Z,96628.59
2022-09-01T06:01:52.362Z,96630.44
2022-09-01T06:04:20.470Z,96641.66
2022-09-01T06:07:07.036Z,96640.59
2022-09-01T06:09:43.546Z,96641.66
2022-09-01T06:12:14.630Z,96649.16
2022-09-01T06:14:42.611Z,96653.19
2022-09-01T06:17:10.973Z,96657.44
2022-09-01T06:19:39.791Z,96661.63
2022-09-01T06:22:10.757Z,96651.50
2022-09-01T06:24:39.767Z,96653.75
2022-09-01T06:27:11.113Z,96653.78
2022-09-01T06:29:40.281Z,96658.03
2022-09-01T06:32:09.410Z,96661.28
2022-09-01T06:34:41.215Z,96653.31
2022-09-01T06:37:12.724Z,96656.97
2022-09-01T06:39:44.519Z,96657.00
2022-09-01T06:42:12.627Z,96659.00
2022-09-01T06:44:43.231Z,96650.09
2022-09-01T06:47:11.301Z,96655.78
2022-09-01T06:49:39.487Z,96661.03
2022-09-01T06:52:10.005Z,96655.28
2022-09-01T06:54:38.151Z,96669.69
2022-09-01T06:59:56.652Z,96667.38
2022-09-01T07:02:26.913Z,96670.19
2022-09-01T07:04:57.830Z,96675.53
2022-09-01T07:10:22.824Z,96679.81
2022-09-01T07:13:11.130Z,96683.84
2022-09-01T07:18:29.967Z,96692.84
2022-09-01T07:21:36.592Z,96689.34
2022-09-01T07:24:10.534Z,96673.16
2022-09-01T07:26:47.678Z,96681.38
2022-09-01T07:29:18.866Z,96684.28
2022-09-01T07:31:50.237Z,96688.94
2022-09-01T07:38:46.938Z,96695.41
2022-09-01T07:39:57.020Z,96702.78
2022-09-01T07:45:29.840Z,96699.53
2022-09-01T07:48:00.232Z,96705.53
2022-09-01T07:50:41.007Z,96714.28
2022-09-01T07:53:24.841Z,96719.28
2022-09-01T07:55:53.413Z,96730.94
2022-09-01T07:58:25.723Z,96739.47
2022-09-01T08:00:54.248Z,96741.41
2022-09-01T08:03:24.966Z,96749.28
2022-09-01T08:05:53.627Z,96745.94
2022-09-01T08:08:27.809Z,96746.16
2022-09-01T08:11:04.370Z,96749.31
2022-09-01T08:13:41.447Z,96751.03
2022-09-01T08:16:18.766Z,96752.00
2022-09-01T08:18:50.433Z,96752.16
2022-09-01T08:21:20.045Z,96758.16
2022-09-01T08:23:48.283Z,96764.50
2022-09-01T08:26:20.535Z,96759.34
2022-09-01T08:28:55.041Z,96758.22
2022-09-01T08:31:30.795Z,96754.94
2022-09-01T08:34:01.839Z,96760.16
2022-09-01T08:36:29.897Z,96765.78
2022-09-01T08:39:00.829Z,96765.47
2022-09-01T08:41:46.810Z,96751.50
2022-09-01T08:44:21.574Z,96760.16
2022-09-01T08:46:50.445Z,96753.00
2022-09-01T08:49:26.868Z,96750.91
2022-09-01T08:52:04.256Z,96752.16
2022-09-01T08:54:46.668Z,96752.09
2022-09-01T08:57:24.923Z,96758.91
2022-09-01T08:59:53.717Z,96749.56
2022-09-01T09:02:24.914Z,96754.84
2022-09-01T09:05:33.815Z,96764.19
2022-09-01T09:08:38.738Z,96762.97
2022-09-01T09:11:30.209Z,96764.97
2022-09-01T09:14:01.231Z,96759.53
2022-09-01T09:16:56.019Z,96757.97
2022-09-01T09:19:34.865Z,96763.50
2022-09-01T09:22:07.676Z,96762.59
2022-09-01T09:24:54.312Z,96783.69
2022-09-01T09:27:26.900Z,96786.19
2022-09-01T09:30:08.000Z,96790.78
2022-09-01T09:35:48.320Z,96788.50
2022-09-01T09:38:23.948Z,96781.25
2022-09-01T09:41:19.932Z,96798.66
2022-09-01T09:44:00.566Z,96785.00
2022-09-01T09:46:46.195Z,96786.50
2022-09-01T09:49:34.453Z,96787.72
2022-09-01T09:52:18.380Z,96792.88
2022-09-01T09:55:08.123Z,96798.66
2022-09-01T09:57:41.139Z,96796.69
2022-09-01T10:00:28.071Z,96795.09
2022-09-01T10:02:59.803Z,96798.88
2022-09-01T10:05:40.235Z,96792.38
2022-09-01T10:08:33.678Z,96783.88
2022-09-01T10:11:06.122Z,96787.34
2022-09-01T10:13:36.472Z,96787.25
2022-09-01T10:16:11.341Z,96792.88
2022-09-01T10:18:42.686Z,96778.31
2022-09-01T10:21:21.946Z,96777.59
2022-09-01T10:23:50.011Z,96773.72
2022-09-01T10:26:38.148Z,96776.19
2022-09-01T10:29:21.295Z,96781.19
2022-09-01T10:31:56.075Z,96776.72
2022-09-01T10:34:42.060Z,96790.47
2022-09-01T10:37:11.720Z,96787.16
2022-09-01T10:40:11.216Z,96799.00
2022-09-01T10:42:44.997Z,96795.28
2022-09-01T10:45:21.282Z,96796.78
2022-09-01T10:47:49.399Z,96808.91
2022-09-01T10:50:35.489Z,96801.88
2022-09-01T10:53:10.344Z,96803.66
2022-09-01T10:55:48.345Z,96806.09
2022-09-01T11:02:23.068Z,96805.50
2022-09-01T11:04:46.099Z,96816.75
2022-09-01T11:07:33.575Z,96831.59
2022-09-01T11:10:32.149Z,96830.88
2022-09-01T11:13:09.574Z,96835.69
2022-09-01T11:15:40.364Z,96829.66
2022-09-01T11:18:18.873Z,96832.81
2022-09-01T11:20:48.190Z,96835.97
2022-09-01T11:23:33.204Z,96829.78
2022-09-01T11:26:34.077Z,96826.50
2022-09-01T11:29:05.394Z,96824.09
2022-09-01T11:31:46.231Z,96830.09
2022-09-01T11:34:20.907Z,96826.81
2022-09-01T11:37:00.367Z,96835.38
2022-09-01T11:39:42.988Z,96832.47
2022-09-01T11:42:18.255Z,96835.03
2022-09-01T11:45:01.107Z,96842.31
2022-09-01T11:47:46.860Z,96843.16
2022-09-01T11:50:27.172Z,96852.81
2022-09-01T11:53:07.660Z,96855.34
2022-09-01T11:55:46.507Z,96861.81
2022-09-01T11:58:33.572Z,96862.88
2022-09-01T12:01:21.435Z,96866.75
2022-09-01T12:03:51.432Z,96874.47
2022-09-01T12:06:26.478Z,96889.00
2022-09-01T12:09:07.983Z,96888.25
2022-09-01T12:11:37.001Z,96889.88
2022-09-01T12:14:10.898Z,96899.44
2022-09-01T12:16:41.654Z,96893.91
2022-09-01T12:19:09.703Z,96901.41
2022-09-01T12:21:40.755Z,96896.53
2022-09-01T12:24:21.807Z,96904.72
2022-09-01T12:26:55.421Z,96911.91
2022-09-01T12:29:28.921Z,96906.19
2022-09-01T12:32:00.996Z,96914.00
2022-09-01T12:34:35.073Z,96911.50
2022-09-01T12:37:26.456Z,96913.03
2022-09-01T12:39:57.397Z,96910.31
2022-09-01T12:42:25.414Z,96911.50
2022-09-01T12:44:58.792Z,96915.69
2022-09-01T12:47:35.745Z,96921.81
2022-09-01T12:50:29.734Z,96920.63
2022-09-01T12:53:05.835Z,96927.63
2022-09-01T12:55:52.286Z,96929.56
2022-09-01T12:58:26.927Z,96938.03
2022-09-01T13:01:09.204Z,96947.06
2022-09-01T13:03:44.718Z,96957.97
2022-09-01T13:06:15.113Z,96954.91
2022-09-01T13:08:46.207Z,96964.66
2022-09-01T13:11:22.172Z,96958.84
2022-09-01T13:13:50.164Z,96967.13
2022-09-01T13:16:18.253Z,96978.31
2022-09-01T13:21:36.342Z,96978.53
2022-09-01T13:24:10.274Z,96975.38
2022-09-01T13:26:38.707Z,96985.44
2022-09-01T13:29:06.773Z,96978.84
2022-09-01T13:31:35.650Z,96986.44
2022-09-01T13:34:10.921Z,96985.00
2022-09-01T13:36:52.079Z,96987.78
2022-09-01T13:39:21.331Z,96992.75
2022-09-01T13:41:49.783Z,96992.38
2022-09-01T13:44:20.216Z,96988.94
2022-09-01T13:50:04.999Z,97016.50
2022-09-01T13:52:24.637Z,97020.81
2022-09-01T13:54:55.283Z,97011.88
2022-09-01T13:57:23.305Z,97016.97
2022-09-01T13:59:52.317Z,97010.97
2022-09-01T14:02:20.490Z,97014.50
2022-09-01T14:04:48.601Z,97019.00
2022-09-01T14:07:16.731Z,97019.13
2022-09-01T14:09:45.695Z,97020.59
2022-09-01T14:12:13.709Z,97014.63
2022-09-01T14:17:32.693Z,97033.84
2022-09-01T14:20:03.427Z,97037.00
2022-09-01T14:22:38.388Z,97045.75
2022-09-01T14:25:10.838Z,97052.19
2022-09-01T14:27:41.217Z,97056.28
2022-09-01T14:30:12.159Z,97063.34
2022-09-01T14:32:40.160Z,97067.41
2022-09-01T14:35:08.645Z,97074.94
2022-09-01T14:37:41.643Z,97072.09
2022-09-01T14:40:16.458Z,97070.59
2022-09-01T14:42:49.838Z,97087.28
2022-09-01T14:45:22.515Z,97081.44
2022-09-01T14:47:52.304Z,97085.22
2022-09-01T14:50:22.732Z,97087.59
2022-09-01T14:52:55.106Z,97079.63
2022-09-01T14:55:24.859Z,97093.06
2022-09-01T14:57:53.684Z,97101.00
2022-09-01T15:00:23.367Z,97099.63
2022-09-01T15:02:55.620Z,97097.84
2022-09-01T15:05:26.435Z,97090.72
2022-09-01T15:07:54.927Z,97096.53
2022-09-01T15:10:25.824Z,97097.69
2022-09-01T15:13:02.026Z,97091.31
2022-09-01T15:15:34.096Z,97096.41
2022-09-01T15:18:04.003Z,97093.22
2022-09-01T15:20:32.105Z,97092.06
2022-09-01T15:23:00.178Z,97096.41
2022-09-01T15:25:28.251Z,97100.66
2022-09-01T15:27:58.677Z,97110.06
2022-09-01T15:30:26.807Z,97099.75
2022-09-01T15:32:55.425Z,97100.72
2022-09-01T15:35:24.099Z,97095.81
2022-09-01T15:37:52.909Z,97101.63
2022-09-01T15:40:25.038Z,97106.41
2022-09-01T15:42:53.094Z,97104.41
2022-09-01T15:45:22.603Z,97122.56
2022-09-01T15:47:50.686Z,97121.44
2022-09-01T15:50:27.541Z,97127.41
2022-09-01T15:53:02.009Z,97126.31
2022-09-01T15:55:33.769Z,97132.94
2022-09-01T15:58:01.820Z,97124.22
2022-09-01T16:00:30.841Z,97122.91
2022-09-01T16:02:58.976Z,97126.19
2022-09-01T16:05:27.087Z,97123.69
2022-09-01T16:10:24.829Z,97114.91
2022-09-01T16:12:55.159Z,97124.69
2022-09-01T16:15:25.209Z,97121.13
2022-09-01T16:18:21.439Z,97126.69
2022-09-01T16:21:26.645Z,97120.16
2022-09-01T16:23:56.996Z,97118.66
2022-09-01T16:26:25.082Z,97120.56
2022-09-01T16:28:57.792Z,97127.91
2022-09-01T16:31:30.382Z,97137.41
2022-09-01T16:34:01.735Z,97137.66
2022-09-01T16:36:33.747Z,97132.78
2022-09-01T16:39:40.254Z,97129.56
2022-09-01T16:42:13.885Z,97131.38
2022-09-01T16:44:55.073Z,97127.16
2022-09-01T16:47:42.274Z,97131.88
2022-09-01T16:50:22.746Z,97124.16
2022-09-01T16:53:24.210Z,97131.38
2022-09-01T16:56:06.545Z,97120.88
2022-09-01T16:58:52.170Z,97125.56
2022-09-01T17:01:44.316Z,97119.00
2022-09-01T17:04:26.953Z,97120.94
2022-09-01T17:07:33.433Z,97135.78
2022-09-01T17:10:24.175Z,97130.53
2022-09-01T17:12:55.381Z,97127.44
2022-09-01T17:15:33.467Z,97130.72
2022-09-01T17:18:23.911Z,97125.31
2022-09-01T17:21:04.015Z,97123.63
2022-09-01T17:23:38.180Z,97117.34
2022-09-01T17:26:13.289Z,97124.47
2022-09-01T17:28:50.595Z,97121.63
2022-09-01T17:31:31.502Z,97125.28
2022-09-01T17:34:01.863Z,97121.63
2022-09-01T17:37:04.016Z,97122.56
2022-09-01T17:39:44.898Z,97112.69
2022-09-01T17:42:32.103Z,97117.53
2022-09-01T17:45:25.993Z,97110.78
2022-09-01T17:47:58.955Z,97100.72
2022-09-01T17:50:55.912Z,97107.06
2022-09-01T17:53:51.671Z,97097.72
2022-09-01T17:56:30.296Z,97108.19
2022-09-01T17:59:01.263Z,97097.81
2022-09-01T18:01:39.761Z,97101.81
2022-09-01T18:04:38.593Z,97090.28
2022-09-01T18:07:06.636Z,97085.38
2022-09-01T18:09:43.458Z,97080.13
2022-09-01T18:12:15.504Z,97088.22
2022-09-01T18:14:54.819Z,97080.31
2022-09-01T18:17:36.072Z,97086.94
2022-09-01T18:20:08.789Z,97076.91
2022-09-01T18:23:07.050Z,97074.09
2022-09-01T18:25:42.616Z,97068.31
2022-09-01T18:28:10.943Z,97083.50
2022-09-01T18:31:03.619Z,97074.38
2022-09-01T18:33:37.657Z,97077.03
2022-09-01T18:36:12.787Z,97070.97
2022-09-01T18:38:43.948Z,97074.47
2022-09-01T18:41:46.950Z,97070.47
2022-09-01T18:44:23.419Z,97067.81
2022-09-01T18:47:10.424Z,97069.31
2022-09-01T18:50:15.312Z,97063.50
2022-09-01T18:52:52.082Z,97057.38
2022-09-01T18:55:25.850Z,97057.94
2022-09-01T18:57:59.353Z,97057.78
2022-09-01T19:00:53.956Z,97061.72
2022-09-01T19:03:33.790Z,97059.31
2022-09-01T19:06:20.344Z,97047.69
2022-09-01T19:08:58.018Z,97050.59
2022-09-01T19:12:03.038Z,97043.97
2022-09-01T19:14:43.673Z,97046.28
2022-09-01T19:17:29.801Z,97047.66
2022-09-01T19:20:12.185Z,97038.09
2022-09-01T19:23:21.397Z,97032.09
2022-09-01T19:25:55.026Z,97031.13
2022-09-01T19:28:26.722Z,97035.97
2022-09-01T19:31:25.107Z,97039.91
2022-09-01T19:34:00.729Z,97034.75
2022-09-01T19:36:38.038Z,97036.72
2022-09-01T19:39:19.091Z,97038.88
2022-09-01T19:42:05.392Z,97038.22
2022-09-01T19:45:06.575Z,97031.34
2022-09-01T19:47:50.086Z,97034.00
2022-09-01T19:50:21.200Z,97035.06
2022-09-01T19:53:04.443Z,97026.50
2022-09-01T19:55:44.351Z,97028.53
2022-09-01T19:58:24.811Z,97020.09
2022-09-01T20:00:59.292Z,97021.41
2022-09-01T20:03:50.691Z,97018.34
2022-09-01T20:06:37.601Z,97009.66
2022-09-01T20:09:10.476Z,97016.50
2022-09-01T20:11:45.523Z,97009.34
2022-09-01T20:14:25.740Z,97011.50
2022-09-01T20:17:00.883Z,97000.69
2022-09-01T20:19:53.345Z,97005.66
2022-09-01T20:23:03.892Z,97013.03
2022-09-01T20:25:43.169Z,96987.13
2022-09-01T20:28:50.199Z,96996.28
2022-09-01T20:31:26.953Z,96994.22
2022-09-01T20:34:16.755Z,96994.94
2022-09-01T20:36:49.743Z,96998.59
2022-09-01T20:39:23.633Z,96998.53
2022-09-01T20:42:04.438Z,96990.41
2022-09-01T20:44:45.740Z,96998.47
2022-09-01T20:47:16.708Z,96992.09
2022-09-01T20:49:44.881Z,96995.53
2022-09-01T20:52:27.695Z,96993.28
2022-09-01T20:55:09.788Z,96992.84
2022-09-01T20:57:46.546Z,96998.63
2022-09-01T21:00:24.662Z,96991.97
2022-09-01T21:03:02.065Z,96986.81
2022-09-01T21:05:51.170Z,96984.03
2022-09-01T21:08:37.059Z,96991.44
2022-09-01T21:11:22.809Z,96977.81
2022-09-01T21:14:06.670Z,96980.31
2022-09-01T21:17:12.274Z,96969.38
2022-09-01T21:20:08.649Z,96972.28
2022-09-01T21:22:39.296Z,96964.69
2022-09-01T21:25:07.651Z,96969.44
2022-09-01T21:27:46.774Z,96963.88
2022-09-01T21:30:16.257Z,96969.38
2022-09-01T21:32:44.708Z,96961.03
2022-09-01T21:35:15.901Z,96962.53
2022-09-01T21:37:44.456Z,96950.16
2022-09-01T21:40:13.673Z,96954.75
2022-09-01T21:42:59.516Z,96950.66
2022-09-01T21:45:30.841Z,96958.25
2022-09-01T21:47:59.146Z,96949.56
2022-09-01T21:50:27.443Z,96941.00
2022-09-01T21:52:55.478Z,96954.94
2022-09-01T21:55:23.683Z,96939.69
2022-09-01T21:57:55.362Z,96940.75
2022-09-01T22:00:28.387Z,96937.38
2022-09-01T22:02:57.287Z,96933.53
2022-09-01T22:05:25.463Z,96926.44
2022-09-01T22:07:54.566Z,96926.94
2022-09-01T22:10:23.986Z,96929.41
2022-09-01T22:12:52.201Z,96912.56
2022-09-01T22:15:24.416Z,96926.06
2022-09-01T22:17:56.482Z,96913.72
2022-09-01T22:20:25.955Z,96914.56
2022-09-01T22:22:53.977Z,96909.00
2022-09-01T22:25:23.504Z,96906.34
2022-09-01T22:27:51.668Z,96904.31
2022-09-01T22:30:22.612Z,96905.47
2022-09-01T22:32:50.708Z,96899.06
2022-09-01T22:35:21.971Z,96892.03
2022-09-01T22:37:51.121Z,96889.69
2022-09-01T22:40:21.614Z,96890.78
2022-09-01T22:42:49.699Z,96883.00
2022-09-01T22:45:17.791Z,96885.28
2022-09-01T22:47:45.846Z,96881.41
2022-09-01T22:50:18.396Z,96883.13
2022-09-01T22:52:46.529Z,96879.50
2022-09-01T22:55:14.568Z,96873.16
2022-09-01T22:57:45.557Z,96876.66
2022-09-01T23:00:16.790Z,96873.59
2022-09-01T23:02:44.821Z,96869.78
2022-09-01T23:05:12.954Z,96863.78
2022-09-01T23:07:41.060Z,96868.03
2022-09-01T23:10:10.055Z,96872.00
2022-09-01T23:12:40.410Z,96874.50
2022-09-01T23:15:09.814Z,96875.66
2022-09-01T23:17:38.268Z,96872.69
2022-09-01T23:20:13.168Z,96865.00
2022-09-01T23:22:42.801Z,96882.09
2022-09-01T23:25:12.140Z,96868.53
2022-09-01T23:27:40.501Z,96861.09
2022-09-01T23:30:10.839Z,96872.06
2022-09-01T23:32:39.039Z,96864.06
2022-09-01T23:35:13.525Z,96864.16
2022-09-01T23:37:41.569Z,96862.09
2022-09-01T23:40:10.060Z,96863.47
2022-09-01T23:42:38.126Z,96886.06
2022-09-01T23:45:06.668Z,96878.25
2022-09-01T23:47:35.119Z,96854.47
2022-09-01T23:50:06.324Z,96856.53
2022-09-01T23:52:34.436Z,96847.97
2022-09-01T23:55:05.555Z,96850.44
2022-09-01T23:57:33.610Z,96852.38
